Time;durP1;ratioP1;P1;durP2;ratioP2;P2;SDS_P1;SDS_P2;PMS_P1;PMS_P2;Temp;Humidity;BMP_temperature;BMP_pressure;BME280_temperature;BME280_humidity;BME280_pressure;Samples;Min_cycle;Max_cycle;Signal;HPM_P1;HPM_P2
2023/03/19 00:00:34;;;;;;;0.20;0.20;;;;;;;11.04;100.00;100630.56;10546006;28;20048;-79
2023/03/19 00:05:36;;;;;;;0.28;0.20;;;;;;;11.03;100.00;100643.41;10524289;28;20048;-79
2023/03/19 00:10:38;;;;;;;0.30;0.10;;;;;;;11.14;100.00;100646.19;10560610;28;20039;-80
2023/03/19 00:15:40;;;;;;;0.00;0.00;;;;;;;11.19;100.00;100670.38;10554022;28;20082;-79
2023/03/19 00:20:42;;;;;;;0.10;0.10;;;;;;;11.24;100.00;100658.44;10532656;28;20415;-80
2023/03/19 00:25:44;;;;;;;0.13;0.00;;;;;;;11.12;100.00;100664.22;10542653;28;20035;-79
2023/03/19 00:30:45;;;;;;;0.10;0.10;;;;;;;11.07;100.00;100655.53;10555759;28;20098;-78
2023/03/19 00:35:47;;;;;;;0.08;0.08;;;;;;;10.99;100.00;100652.78;10529349;28;20075;-78
2023/03/19 00:40:49;;;;;;;0.00;0.00;;;;;;;11.02;100.00;100639.97;10562078;28;20126;-79
2023/03/19 00:45:50;;;;;;;0.32;0.08;;;;;;;10.78;100.00;100620.59;10537176;28;20072;-79
2023/03/19 00:50:52;;;;;;;0.00;0.00;;;;;;;10.53;100.00;100596.03;10532779;28;20051;-78
2023/03/19 00:55:54;;;;;;;0.05;0.05;;;;;;;10.46;100.00;100563.25;10546452;28;20045;-79
2023/03/19 01:00:55;;;;;;;0.00;0.00;;;;;;;10.41;100.00;100550.28;10529181;28;20100;-78
2023/03/19 01:05:58;;;;;;;0.10;0.03;;;;;;;10.31;100.00;100522.59;10560667;28;20036;-78
2023/03/19 01:11:08;;;;;;;0.32;0.20;;;;;;;10.12;100.00;100509.31;10533460;28;20063;-79
2023/03/19 01:16:10;;;;;;;0.43;0.22;;;;;;;10.23;100.00;100496.66;10533850;28;20044;-79
2023/03/19 01:21:12;;;;;;;0.10;0.10;;;;;;;10.42;100.00;100490.22;10527142;28;20051;-79
2023/03/19 01:26:21;;;;;;;0.00;0.00;;;;;;;10.30;100.00;100497.66;10540351;28;20048;-79
2023/03/19 01:31:27;;;;;;;0.03;0.03;;;;;;;10.37;100.00;100491.84;10522954;28;20475;-79
2023/03/19 01:36:38;;;;;;;0.13;0.10;;;;;;;10.25;100.00;100473.50;10560674;27;20047;-79
2023/03/19 01:41:41;;;;;;;0.00;0.00;;;;;;;10.16;100.00;100462.19;10538991;28;20039;-78
2023/03/19 01:47:31;;;;;;;0.20;0.10;;;;;;;10.16;100.00;100441.59;10529467;28;20436;-78
2023/03/19 01:52:45;;;;;;;0.15;0.10;;;;;;;10.23;100.00;100434.00;10537161;28;20052;-78
2023/03/19 01:58:05;;;;;;;0.10;0.10;;;;;;;10.13;100.00;100426.09;10526835;28;20047;-78
2023/03/19 02:03:26;;;;;;;0.22;0.05;;;;;;;10.12;100.00;100419.22;10550243;28;20513;-78
2023/03/19 02:08:51;;;;;;;0.65;0.65;;;;;;;10.14;100.00;100409.81;10556655;27;20109;-78
2023/03/19 02:13:53;;;;;;;0.10;0.10;;;;;;;10.14;100.00;100401.22;10538340;28;20039;-78
2023/03/19 02:18:55;;;;;;;0.50;0.38;;;;;;;10.21;100.00;100408.22;10530076;28;20056;-79
2023/03/19 02:24:16;;;;;;;0.20;0.17;;;;;;;10.22;100.00;100399.66;10576277;27;20046;-79
2023/03/19 02:29:26;;;;;;;2.05;0.95;;;;;;;10.16;100.00;100394.41;10552913;28;20074;-78
2023/03/19 02:34:35;;;;;;;0.10;0.10;;;;;;;10.06;100.00;100402.75;10565973;28;20501;-78
2023/03/19 02:39:45;;;;;;;0.15;0.08;;;;;;;10.20;100.00;100397.91;10546019;28;20046;-77
2023/03/19 02:44:47;;;;;;;0.00;0.00;;;;;;;10.11;100.00;100396.88;10522761;28;20055;-78
2023/03/19 02:49:49;;;;;;;1.02;0.50;;;;;;;10.27;100.00;100397.19;10547817;28;20051;-77
2023/03/19 02:54:50;;;;;;;0.30;0.10;;;;;;;10.27;100.00;100410.06;10521996;28;20102;-78
2023/03/19 02:59:52;;;;;;;0.35;0.35;;;;;;;10.21;100.00;100417.66;10522451;28;20059;-78
2023/03/19 03:04:54;;;;;;;0.20;0.10;;;;;;;10.33;100.00;100412.75;10522678;28;20136;-77
2023/03/19 03:09:55;;;;;;;0.08;0.08;;;;;;;10.14;100.00;100414.97;10505458;28;20056;-78
2023/03/19 03:14:57;;;;;;;0.10;0.10;;;;;;;10.17;100.00;100414.16;10528229;28;20047;-78
2023/03/19 03:19:59;;;;;;;0.40;0.40;;;;;;;10.14;100.00;100412.41;10564388;28;20044;-78
2023/03/19 03:25:01;;;;;;;0.32;0.15;;;;;;;10.09;100.00;100416.56;10530423;28;20040;-78
2023/03/19 03:30:07;;;;;;;0.38;0.30;;;;;;;10.25;100.00;100414.28;10529630;28;20102;-78
2023/03/19 03:35:09;;;;;;;0.20;0.17;;;;;;;10.09;100.00;100414.00;10562844;28;20048;-78
2023/03/19 03:40:13;;;;;;;0.50;0.30;;;;;;;10.08;100.00;100412.28;10529058;28;20525;-78
2023/03/19 03:45:14;;;;;;;1.55;0.80;;;;;;;10.04;100.00;100410.47;10545556;28;20055;-78
2023/03/19 03:50:18;;;;;;;0.00;0.00;;;;;;;10.08;100.00;100414.84;10572835;27;20058;-79
2023/03/19 03:55:22;;;;;;;0.60;0.60;;;;;;;10.18;100.00;100413.31;10529386;28;20036;-79
2023/03/19 04:00:24;;;;;;;0.32;0.10;;;;;;;9.82;100.00;100386.88;10536451;28;20513;-79
2023/03/19 04:05:26;;;;;;;0.43;0.32;;;;;;;9.65;100.00;100375.34;10536428;28;20047;-79
2023/03/19 04:10:29;;;;;;;1.05;0.55;;;;;;;9.63;100.00;100361.63;10538761;28;20456;-79
2023/03/19 04:15:30;;;;;;;0.98;0.77;;;;;;;9.62;100.00;100347.00;10553066;28;20040;-79
2023/03/19 04:20:34;;;;;;;0.17;0.10;;;;;;;9.61;100.00;100333.25;10548778;28;20063;-79
2023/03/19 04:25:40;;;;;;;0.22;0.20;;;;;;;9.52;100.00;100327.97;10531260;28;20056;-79
2023/03/19 04:30:42;;;;;;;0.20;0.20;;;;;;;9.53;100.00;100324.56;10534902;28;20058;-79
2023/03/19 04:35:45;;;;;;;0.43;0.30;;;;;;;9.39;100.00;100320.78;10546328;28;20048;-79
2023/03/19 04:40:47;;;;;;;0.52;0.25;;;;;;;9.48;100.00;100311.59;10517676;28;20097;-79
2023/03/19 04:45:49;;;;;;;0.10;0.10;;;;;;;9.44;100.00;100308.94;10527282;28;20046;-79
2023/03/19 04:50:52;;;;;;;0.30;0.00;;;;;;;9.38;100.00;100304.50;10530716;28;20064;-80
2023/03/19 04:55:54;;;;;;;0.40;0.15;;;;;;;9.34;100.00;100308.72;10539536;28;20123;-80
2023/03/19 05:00:56;;;;;;;1.60;0.30;;;;;;;9.39;100.00;100310.50;10515915;28;20850;-80
2023/03/19 05:06:13;;;;;;;0.80;0.20;;;;;;;9.38;100.00;100313.94;10378131;28;3652826;-80
2023/03/19 05:11:15;;;;;;;0.52;0.43;;;;;;;9.33;100.00;100317.25;10536357;28;20511;-79
2023/03/19 05:16:34;;;;;;;0.77;0.50;;;;;;;9.30;100.00;100316.34;10520392;28;20048;-79
2023/03/19 05:21:36;;;;;;;0.47;0.43;;;;;;;9.31;100.00;100318.06;10506149;28;20048;-78
2023/03/19 05:26:38;;;;;;;1.20;0.68;;;;;;;9.26;100.00;100319.69;10537866;28;20068;-79
2023/03/19 05:31:56;;;;;;;0.10;0.10;;;;;;;9.35;100.00;100325.00;10545770;28;20073;-80
2023/03/19 05:36:57;;;;;;;1.88;0.32;;;;;;;9.32;100.00;100318.09;10517273;28;20469;-79
2023/03/19 05:42:04;;;;;;;0.68;0.45;;;;;;;9.36;100.00;100317.34;10532652;28;20599;-79
2023/03/19 05:47:07;;;;;;;0.40;0.10;;;;;;;9.31;100.00;100324.06;10515014;28;20048;-80
2023/03/19 05:52:12;;;;;;;1.30;0.88;;;;;;;9.19;100.00;100329.84;10543701;28;20391;-79
2023/03/19 05:57:16;;;;;;;1.13;0.40;;;;;;;9.12;100.00;100342.50;10532316;28;20071;-79
2023/03/19 06:02:23;;;;;;;0.98;0.35;;;;;;;9.38;100.00;100330.22;10531562;28;20071;-79
2023/03/19 06:07:34;;;;;;;1.77;0.20;;;;;;;9.49;100.00;100331.31;10531516;28;20047;-79
2023/03/19 06:12:39;;;;;;;2.13;0.60;;;;;;;9.36;100.00;100331.88;10548507;28;20035;-79
2023/03/19 06:18:09;;;;;;;;;;;;;;;9.33;100.00;100352.41;10531694;28;20054;-79
2023/03/19 06:23:11;;;;;;;0.65;0.60;;;;;;;9.33;100.00;100342.97;10531808;28;19920;-79
2023/03/19 06:28:16;;;;;;;0.30;0.20;;;;;;;9.46;100.00;100338.09;10539969;28;20048;-79
2023/03/19 06:33:19;;;;;;;0.60;0.38;;;;;;;9.56;100.00;100339.19;10554151;27;20143;-79
2023/03/19 06:38:21;;;;;;;0.20;0.20;;;;;;;9.64;100.00;100342.78;10538311;28;20050;-79
2023/03/19 06:43:23;;;;;;;1.08;0.68;;;;;;;9.63;100.00;100348.75;10525132;28;20066;-79
2023/03/19 06:48:24;;;;;;;0.40;0.20;;;;;;;9.55;100.00;100358.00;10536610;28;20065;-80
2023/03/19 06:53:27;;;;;;;1.35;0.88;;;;;;;9.69;100.00;100365.16;10529730;28;20416;-79
2023/03/19 06:58:28;;;;;;;0.45;0.45;;;;;;;9.68;100.00;100372.84;10547655;28;20044;-79
2023/03/19 07:03:35;;;;;;;0.43;0.30;;;;;;;10.13;100.00;100376.31;10532724;28;20049;-78
2023/03/19 07:08:36;;;;;;;1.33;0.50;;;;;;;9.99;100.00;100396.66;10570243;28;20431;-79
2023/03/19 07:13:38;;;;;;;0.98;0.88;;;;;;;10.08;100.00;100407.13;10553251;28;20055;-79
2023/03/19 07:18:40;;;;;;;1.60;0.85;;;;;;;10.11;100.00;100414.91;10558088;28;20066;-79
2023/03/19 07:23:41;;;;;;;0.73;0.50;;;;;;;10.07;100.00;100425.09;10495985;28;20457;-79
2023/03/19 07:28:43;;;;;;;1.25;0.50;;;;;;;10.23;100.00;100421.16;10535365;28;20560;-79
2023/03/19 07:33:45;;;;;;;0.63;0.57;;;;;;;11.34;100.00;100417.91;10539528;28;20049;-79
2023/03/19 07:38:46;;;;;;;4.20;0.70;;;;;;;11.67;100.00;100446.75;10561303;28;20047;-79
2023/03/19 07:43:48;;;;;;;0.95;0.85;;;;;;;11.17;100.00;100489.84;10503862;28;20052;-80
2023/03/19 07:48:50;;;;;;;1.40;0.60;;;;;;;11.37;100.00;100505.66;10531503;28;20062;-80
2023/03/19 07:53:52;;;;;;;1.23;0.68;;;;;;;11.13;100.00;100531.03;10517985;28;20049;-80
2023/03/19 07:58:54;;;;;;;0.65;0.30;;;;;;;11.02;100.00;100531.69;10526698;28;20380;-79
2023/03/19 08:03:56;;;;;;;0.90;0.52;;;;;;;10.66;100.00;100561.09;10531160;28;20032;-79
2023/03/19 08:08:58;;;;;;;0.65;0.57;;;;;;;10.89;100.00;100569.25;10535010;28;20632;-83
2023/03/19 08:14:00;;;;;;;2.97;1.30;;;;;;;10.78;100.00;100576.78;10535997;28;20367;-83
2023/03/19 08:19:01;;;;;;;5.57;0.95;;;;;;;10.74;100.00;100595.63;10536609;28;20551;-79
2023/03/19 08:24:03;;;;;;;1.55;1.17;;;;;;;10.85;100.00;100628.44;10560930;28;20052;-79
2023/03/19 08:29:05;;;;;;;0.75;0.63;;;;;;;10.91;100.00;100623.41;10536105;28;20051;-79
2023/03/19 08:34:09;;;;;;;0.57;0.52;;;;;;;11.64;100.00;100637.66;10530364;28;20543;-79
2023/03/19 08:39:10;;;;;;;0.68;0.68;;;;;;;11.20;100.00;100666.97;10528857;28;20126;-79
2023/03/19 08:44:12;;;;;;;0.68;0.35;;;;;;;11.51;100.00;100657.19;10526200;28;20044;-79
2023/03/19 08:49:14;;;;;;;1.35;0.90;;;;;;;11.94;100.00;100657.97;10518433;28;20049;-79
2023/03/19 08:54:16;;;;;;;1.27;0.80;;;;;;;12.96;100.00;100694.75;10520093;28;20074;-79
2023/03/19 08:59:18;;;;;;;0.30;0.20;;;;;;;11.89;100.00;100747.34;10498774;28;20110;-80
2023/03/19 09:04:20;;;;;;;0.20;0.20;;;;;;;13.36;100.00;100777.16;10532857;28;20093;-79
2023/03/19 09:09:23;;;;;;;0.63;0.38;;;;;;;12.89;100.00;100868.75;10534118;28;20059;-79
2023/03/19 09:14:26;;;;;;;1.38;0.68;;;;;;;13.39;100.00;100885.91;10573714;28;20051;-79
2023/03/19 09:19:27;;;;;;;0.30;0.30;;;;;;;14.15;100.00;100890.31;10569471;27;20139;-80
2023/03/19 09:24:29;;;;;;;1.40;0.60;;;;;;;14.18;100.00;100931.81;10516568;28;20051;-79
2023/03/19 09:29:31;;;;;;;0.10;0.10;;;;;;;14.81;100.00;100954.94;10558760;28;20098;-79
2023/03/19 09:34:33;;;;;;;0.65;0.40;;;;;;;14.79;100.00;100982.56;10537274;28;20070;-79
2023/03/19 09:39:35;;;;;;;0.88;0.52;;;;;;;13.75;100.00;101027.94;10541181;28;20561;-79
2023/03/19 09:44:39;;;;;;;0.57;0.43;;;;;;;12.84;100.00;101010.91;10566504;28;20058;-79
2023/03/19 09:49:48;;;;;;;0.10;0.10;;;;;;;12.75;100.00;101005.56;10505664;28;20055;-79
2023/03/19 09:54:55;;;;;;;0.00;0.00;;;;;;;12.22;100.00;100999.38;10483318;28;20097;-78
2023/03/19 09:59:57;;;;;;;0.68;0.38;;;;;;;13.42;100.00;100979.97;10532259;28;20051;-78
2023/03/19 10:05:06;;;;;;;0.30;0.17;;;;;;;12.99;100.00;100980.13;10542169;27;20045;-78
2023/03/19 10:10:30;;;;;;;0.00;0.00;;;;;;;14.10;100.00;101006.84;10539474;28;20490;-78
2023/03/19 10:15:32;;;;;;;0.32;0.10;;;;;;;14.05;100.00;101036.13;10507811;28;20051;-78
2023/03/19 10:20:43;;;;;;;0.20;0.17;;;;;;;14.58;100.00;101025.56;10510361;28;20499;-78
2023/03/19 10:25:45;;;;;;;0.00;0.00;;;;;;;15.44;100.00;101053.25;10526298;28;20044;-80
2023/03/19 10:31:23;;;;;;;0.10;0.10;;;;;;;14.89;100.00;101108.06;10539691;28;20511;-78
2023/03/19 10:36:30;;;;;;;0.25;0.22;;;;;;;14.59;100.00;101112.88;10502880;28;20090;-79
2023/03/19 10:41:56;;;;;;;0.63;0.30;;;;;;;15.62;100.00;101127.81;10515876;28;20092;-79
2023/03/19 10:47:07;;;;;;;0.63;0.20;;;;;;;16.07;100.00;101159.38;10546071;28;20048;-79
2023/03/19 10:52:32;;;;;;;0.25;0.20;;;;;;;15.93;100.00;101168.78;10539980;28;20048;-78
2023/03/19 10:57:34;;;;;;;0.52;0.38;;;;;;;17.35;100.00;101147.84;10522022;28;20043;-79
2023/03/19 11:02:37;;;;;;;0.05;0.05;;;;;;;15.58;100.00;101180.56;10537959;28;20044;-84
2023/03/19 11:07:39;;;;;;;0.00;0.00;;;;;;;16.74;100.00;101168.44;10526696;28;20502;-84
2023/03/19 11:12:41;;;;;;;0.03;0.03;;;;;;;16.85;100.00;101201.44;10532047;28;20052;-84
2023/03/19 11:17:49;;;;;;;0.35;0.35;;;;;;;16.50;100.00;101185.66;10540946;28;20043;-82
2023/03/19 11:22:51;;;;;;;1.02;0.45;;;;;;;15.79;100.00;101203.28;10521085;28;20109;-83
2023/03/19 11:28:09;;;;;;;0.38;0.10;;;;;;;15.97;100.00;101186.16;10532399;28;20040;-84
2023/03/19 11:33:20;;;;;;;0.15;0.15;;;;;;;17.23;100.00;101165.16;10520563;28;20036;-84
2023/03/19 11:38:49;;;;;;;0.20;0.20;;;;;;;17.87;100.00;101205.19;10541189;28;20046;-84
2023/03/19 11:44:01;;;;;;;0.10;0.10;;;;;;;15.85;100.00;101208.56;10494656;28;20051;-84
2023/03/19 11:49:17;;;;;;;0.00;0.00;;;;;;;16.21;100.00;101163.78;10531903;28;20502;-83
2023/03/19 11:54:28;;;;;;;0.55;0.20;;;;;;;17.50;100.00;101199.94;10534495;28;20085;-84
2023/03/19 11:59:58;;;;;;;0.05;0.05;;;;;;;15.55;100.00;101202.19;10538274;28;20044;-83
2023/03/19 12:05:42;;;;;;;0.13;0.10;;;;;;;17.75;100.00;101200.88;10536593;28;20109;-81
2023/03/19 12:10:59;;;;;;;0.52;0.25;;;;;;;17.49;100.00;101236.41;10490076;28;20048;-82
2023/03/19 12:16:16;;;;;;;1.42;0.63;;;;;;;16.55;100.00;101236.84;10530742;28;20044;-83
2023/03/19 12:21:24;;;;;;;0.28;0.08;;;;;;;17.24;100.00;101218.09;10544646;28;20408;-83
2023/03/19 12:26:41;;;;;;;0.10;0.10;;;;;;;17.83;100.00;101257.34;10569992;27;20113;-78
2023/03/19 12:32:09;;;;;;;0.30;0.20;;;;;;;17.18;100.00;101271.03;10526729;28;20036;-77
2023/03/19 12:37:23;;;;;;;0.05;0.05;;;;;;;17.92;100.00;101267.75;10502822;28;20044;-79
2023/03/19 12:42:31;;;;;;;0.20;0.08;;;;;;;18.43;100.00;101225.22;10547390;28;20486;-78
2023/03/19 12:47:37;;;;;;;0.35;0.35;;;;;;;18.13;100.00;101233.03;10567555;28;20039;-78
2023/03/19 12:52:41;;;;;;;0.85;0.52;;;;;;;17.73;100.00;101207.81;10523827;28;20048;-78
2023/03/19 12:58:18;;;;;;;0.20;0.20;;;;;;;17.68;100.00;101259.06;10522684;28;20052;-78
2023/03/19 13:03:28;;;;;;;0.77;0.30;;;;;;;17.04;100.00;101211.09;10507006;28;20102;-78
2023/03/19 13:08:39;;;;;;;0.00;0.00;;;;;;;16.68;100.00;101220.44;10557257;28;20105;-78
2023/03/19 13:13:58;;;;;;;1.33;0.40;;;;;;;17.00;100.00;101224.97;10483687;28;20076;-78
2023/03/19 13:19:28;;;;;;;2.33;1.17;;;;;;;16.34;100.00;101186.44;10494687;28;20048;-78
2023/03/19 13:24:39;;;;;;;0.17;0.17;;;;;;;15.01;100.00;101187.75;10509511;28;20055;-79
2023/03/19 13:29:56;;;;;;;0.30;0.20;;;;;;;15.41;100.00;101164.84;10515824;28;20044;-79
2023/03/19 13:35:35;;;;;;;0.10;0.10;;;;;;;16.61;100.00;101224.72;10531614;28;20097;-80
2023/03/19 13:40:38;;;;;;;0.30;0.30;;;;;;;16.34;100.00;101213.28;10530713;28;20054;-79
2023/03/19 13:45:40;;;;;;;0.10;0.10;;;;;;;17.03;100.00;101250.16;10565396;28;20105;-79
2023/03/19 13:51:01;;;;;;;0.08;0.08;;;;;;;16.40;100.00;101228.06;10536093;28;20044;-79
2023/03/19 13:56:07;;;;;;;0.57;0.28;;;;;;;17.12;100.00;101234.56;10544941;28;20039;-79
2023/03/19 14:01:29;;;;;;;3.33;1.13;;;;;;;16.67;100.00;101190.06;10542922;28;20044;-84
2023/03/19 14:06:44;;;;;;;9.35;1.45;;;;;;;14.89;100.00;101134.00;10521365;28;20108;-80
2023/03/19 14:11:46;;;;;;;3.00;1.30;;;;;;;13.96;100.00;101105.06;10552408;28;20048;-78
2023/03/19 14:16:50;;;;;;;0.90;0.75;;;;;;;13.86;100.00;101079.00;10513014;28;20045;-79
2023/03/19 14:21:58;;;;;;;1.92;0.63;;;;;;;13.78;100.00;101071.13;10523737;28;20040;-79
2023/03/19 14:27:29;;;;;;;1.35;1.00;;;;;;;13.93;100.00;101063.59;10519402;28;20048;-79
2023/03/19 14:32:39;;;;;;;1.60;1.10;;;;;;;14.12;100.00;101076.81;10530724;28;20047;-79
2023/03/19 14:37:51;;;;;;;0.20;0.20;;;;;;;13.87;100.00;101133.44;10508524;28;20048;-79
2023/03/19 14:43:32;;;;;;;0.85;0.32;;;;;;;14.11;100.00;101139.84;10520129;28;20052;-79
2023/03/19 14:48:55;;;;;;;0.38;0.20;;;;;;;14.26;100.00;101147.81;10518084;28;20105;-79
2023/03/19 14:54:35;;;;;;;0.20;0.20;;;;;;;14.82;100.00;101148.63;10519339;28;20078;-78
2023/03/19 14:59:39;;;;;;;0.00;0.00;;;;;;;14.79;100.00;101173.66;10518832;28;20462;-79
2023/03/19 15:04:45;;;;;;;0.88;0.30;;;;;;;14.87;100.00;101172.88;10512255;28;20052;-79
2023/03/19 15:09:53;;;;;;;0.65;0.20;;;;;;;14.88;100.00;101186.75;10541522;28;20123;-79
2023/03/19 15:15:14;;;;;;;0.65;0.32;;;;;;;14.60;100.00;101187.22;10546572;28;20507;-79
2023/03/19 15:20:21;;;;;;;0.10;0.10;;;;;;;14.56;100.00;101185.41;10559884;28;20062;-79
2023/03/19 15:25:22;;;;;;;0.00;0.00;;;;;;;14.51;100.00;101194.00;10520601;28;20438;-79
2023/03/19 15:30:28;;;;;;;0.88;0.25;;;;;;;14.64;100.00;101198.50;10554372;28;20089;-79
2023/03/19 15:35:34;;;;;;;0.25;0.20;;;;;;;14.87;100.00;101200.56;10512561;28;20048;-79
2023/03/19 15:40:39;;;;;;;0.00;0.00;;;;;;;15.33;100.00;101205.41;10540942;28;20483;-79
2023/03/19 15:45:49;;;;;;;0.28;0.25;;;;;;;15.18;100.00;101208.72;10562435;28;20047;-79
2023/03/19 15:50:54;;;;;;;;;;;;;;;15.41;100.00;101206.38;10529931;28;20052;-79
2023/03/19 15:55:56;;;;;;;0.93;0.50;;;;;;;15.51;100.00;101187.47;10546020;28;20433;-79
2023/03/19 16:00:59;;;;;;;0.25;0.25;;;;;;;14.48;100.00;101162.81;10537341;28;20101;-80
2023/03/19 16:06:16;;;;;;;0.20;0.17;;;;;;;14.90;100.00;101167.75;10511032;28;20052;-80
2023/03/19 16:11:28;;;;;;;11.50;0.75;;;;;;;15.22;100.00;101185.41;10525560;28;20480;-80
2023/03/19 16:16:31;;;;;;;1.83;0.50;;;;;;;15.59;100.00;101176.28;10517447;28;20075;-80
2023/03/19 16:21:39;;;;;;;2.30;1.35;;;;;;;15.90;100.00;101225.94;10535568;28;20419;-80
2023/03/19 16:26:42;;;;;;;1.08;0.90;;;;;;;14.88;100.00;101195.38;10544105;28;20040;-79
2023/03/19 16:31:52;;;;;;;0.60;0.45;;;;;;;14.00;100.00;101183.69;10525641;28;20052;-80
2023/03/19 16:36:53;;;;;;;0.15;0.15;;;;;;;13.92;100.00;101188.78;10535648;28;20376;-82
2023/03/19 16:42:07;;;;;;;0.20;0.15;;;;;;;13.76;100.00;101205.78;10525078;28;20052;-81
2023/03/19 16:47:14;;;;;;;0.55;0.52;;;;;;;13.55;100.00;101198.47;10542178;28;20071;-81
2023/03/19 16:52:20;;;;;;;1.05;0.55;;;;;;;13.05;100.00;101177.66;10545405;28;20460;-82
2023/03/19 16:57:21;;;;;;;0.55;0.50;;;;;;;12.98;100.00;101169.78;10537422;28;20036;-80
2023/03/19 17:02:23;;;;;;;2.10;0.50;;;;;;;12.58;100.00;101166.34;10562944;28;20046;-81
2023/03/19 17:07:25;;;;;;;1.52;0.93;;;;;;;12.29;100.00;101158.81;10557876;28;20440;-82
2023/03/19 17:12:26;;;;;;;1.80;1.52;;;;;;;11.96;100.00;101146.81;10533166;28;20048;-82
2023/03/19 17:17:28;;;;;;;0.85;0.45;;;;;;;11.69;100.00;101142.72;10573574;28;20047;-84
2023/03/19 17:22:30;;;;;;;0.50;0.40;;;;;;;11.48;100.00;101147.34;10533859;28;20552;-80
2023/03/19 17:27:31;;;;;;;0.43;0.38;;;;;;;11.18;100.00;101148.28;10555128;28;20039;-80
2023/03/19 17:32:37;;;;;;;1.50;0.45;;;;;;;11.18;100.00;101148.28;10521077;28;20048;-79
2023/03/19 17:37:42;;;;;;;1.02;0.43;;;;;;;10.97;100.00;101149.44;10509337;28;20574;-80
2023/03/19 17:42:44;;;;;;;0.75;0.60;;;;;;;10.69;100.00;101153.75;10540114;28;20456;-81
2023/03/19 17:47:49;;;;;;;0.32;0.30;;;;;;;10.23;100.00;101142.06;10549127;28;20041;-81
2023/03/19 17:52:51;;;;;;;0.65;0.52;;;;;;;10.21;100.00;101139.41;10545018;28;20101;-81
2023/03/19 17:57:56;;;;;;;3.28;1.88;;;;;;;9.91;100.00;101123.88;10562771;28;20482;-82
2023/03/19 18:02:58;;;;;;;0.47;0.30;;;;;;;9.93;100.00;101129.97;10541848;28;20051;-81
2023/03/19 18:07:59;;;;;;;0.75;0.40;;;;;;;9.75;100.00;101136.25;10508481;28;20040;-81
2023/03/19 18:13:04;;;;;;;0.68;0.52;;;;;;;9.67;100.00;101141.16;10528869;28;20096;-81
2023/03/19 18:18:17;;;;;;;3.88;1.08;;;;;;;9.56;100.00;101144.19;10521720;28;20036;-81
2023/03/19 18:23:22;;;;;;;0.38;0.28;;;;;;;9.64;100.00;101155.63;10529713;28;20483;-80
2023/03/19 18:28:24;;;;;;;0.43;0.28;;;;;;;9.59;100.00;101157.13;10530694;28;20044;-80
2023/03/19 18:33:28;;;;;;;0.28;0.17;;;;;;;9.44;100.00;101160.94;10511946;28;20040;-80
2023/03/19 18:38:29;;;;;;;0.17;0.17;;;;;;;9.42;100.00;101160.00;10544143;28;20098;-81
2023/03/19 18:43:31;;;;;;;0.20;0.10;;;;;;;9.23;100.00;101165.31;10514983;28;20354;-80
2023/03/19 18:48:33;;;;;;;0.20;0.20;;;;;;;9.27;100.00;101164.63;10536076;28;20064;-81
2023/03/19 18:53:34;;;;;;;0.45;0.35;;;;;;;9.14;100.00;101153.03;10546625;28;20066;-80
2023/03/19 18:58:37;;;;;;;1.13;0.15;;;;;;;9.02;100.00;101151.75;10513326;28;20064;-81
2023/03/19 19:03:39;;;;;;;0.40;0.32;;;;;;;9.13;100.00;101167.56;10544376;28;20051;-81
2023/03/19 19:08:40;;;;;;;0.30;0.25;;;;;;;9.25;100.00;101161.13;10530678;28;20101;-81
2023/03/19 19:13:47;;;;;;;0.00;0.00;;;;;;;8.85;100.00;101171.69;10543674;28;20078;-81
2023/03/19 19:18:59;;;;;;;0.10;0.10;;;;;;;9.18;100.00;101165.16;10520535;28;20040;-80
2023/03/19 19:24:01;;;;;;;0.68;0.50;;;;;;;8.53;100.00;101168.78;10548792;28;20071;-80
2023/03/19 19:29:03;;;;;;;0.38;0.00;;;;;;;9.04;100.00;101156.97;10518386;28;20094;-80
2023/03/19 19:34:05;;;;;;;0.65;0.65;;;;;;;9.32;100.00;101157.94;10534008;28;20147;-80
2023/03/19 19:39:06;;;;;;;0.50;0.30;;;;;;;9.43;100.00;101166.91;10536704;28;20036;-80
2023/03/19 19:44:16;;;;;;;5.50;0.55;;;;;;;9.53;100.00;101168.97;10542754;28;20100;-81
2023/03/19 19:49:22;;;;;;;0.45;0.30;;;;;;;9.78;100.00;101167.25;10532646;28;20097;-80
2023/03/19 19:54:26;;;;;;;1.55;0.35;;;;;;;9.93;100.00;101164.28;10532097;28;20051;-81
2023/03/19 19:59:28;;;;;;;0.68;0.47;;;;;;;9.95;100.00;101180.66;10540235;28;20044;-80
2023/03/19 20:04:29;;;;;;;0.80;0.45;;;;;;;9.93;100.00;101178.88;10554243;28;20044;-80
2023/03/19 20:09:31;;;;;;;0.05;0.05;;;;;;;10.07;100.00;101182.75;10553684;28;20540;-78
2023/03/19 20:14:33;;;;;;;0.70;0.40;;;;;;;10.11;100.00;101187.16;10546190;28;20097;-79
2023/03/19 20:19:34;;;;;;;0.98;0.85;;;;;;;10.11;100.00;101186.31;10540203;28;20478;-79
2023/03/19 20:24:36;;;;;;;1.48;0.88;;;;;;;9.93;100.00;101178.88;10521491;28;20532;-79
2023/03/19 20:29:39;;;;;;;1.15;0.80;;;;;;;10.22;100.00;101176.34;10523662;28;20522;-79
2023/03/19 20:34:40;;;;;;;1.40;1.00;;;;;;;10.19;100.00;101171.09;10541408;28;20044;-79
2023/03/19 20:39:44;;;;;;;0.63;0.30;;;;;;;10.14;100.00;101166.69;10509385;28;20059;-79
2023/03/19 20:44:47;;;;;;;5.97;0.93;;;;;;;9.99;100.00;101171.34;10557949;28;20036;-79
2023/03/19 20:49:48;;;;;;;0.40;0.40;;;;;;;9.91;100.00;101162.50;10534499;28;20047;-79
2023/03/19 20:54:51;;;;;;;1.17;1.05;;;;;;;9.78;100.00;101163.78;10527371;28;20074;-79
2023/03/19 20:59:53;;;;;;;1.42;0.93;;;;;;;9.62;100.00;101172.69;10524286;28;20056;-79
2023/03/19 21:04:55;;;;;;;2.90;1.35;;;;;;;9.36;100.00;101180.34;10547754;28;20040;-79
2023/03/19 21:09:57;;;;;;;1.85;0.95;;;;;;;9.24;100.00;101182.50;10540813;28;20063;-80
2023/03/19 21:15:00;;;;;;;2.30;1.27;;;;;;;9.08;100.00;101184.53;10546370;28;20052;-79
2023/03/19 21:20:01;;;;;;;1.70;1.08;;;;;;;8.79;100.00;101191.13;10522961;28;20474;-85
2023/03/19 21:25:07;;;;;;;4.50;1.67;;;;;;;8.72;100.00;101179.75;10526073;28;20067;-85
2023/03/19 21:30:15;;;;;;;3.00;1.45;;;;;;;8.44;100.00;101183.81;10535642;28;20047;-85
2023/03/19 21:35:21;;;;;;;1.98;1.15;;;;;;;8.42;100.00;101196.56;10508639;28;20384;-84
2023/03/19 21:40:29;;;;;;;1.83;0.93;;;;;;;8.10;100.00;101200.41;10523296;28;20047;-84
2023/03/19 21:45:34;;;;;;;1.73;0.98;;;;;;;8.01;100.00;101210.31;10535311;28;20036;-85
2023/03/19 21:50:38;;;;;;;1.30;1.00;;;;;;;7.70;100.00;101211.59;10525502;28;20059;-84
2023/03/19 21:55:40;;;;;;;0.60;0.50;;;;;;;7.48;100.00;101208.13;10517391;28;20047;-83
2023/03/19 22:00:42;;;;;;;1.70;0.75;;;;;;;7.37;100.00;101201.63;10528271;28;20047;-83
2023/03/19 22:05:45;;;;;;;1.40;0.60;;;;;;;7.67;100.00;101180.69;10526834;28;20131;-84
2023/03/19 22:10:54;;;;;;;1.13;0.82;;;;;;;8.07;100.00;101154.13;10547727;28;20101;-84
2023/03/19 22:15:59;;;;;;;1.58;0.80;;;;;;;8.14;100.00;101127.88;10535395;28;20405;-84
2023/03/19 22:21:01;;;;;;;2.78;1.45;;;;;;;8.07;100.00;101121.63;10512271;28;20449;-84
2023/03/19 22:26:02;;;;;;;1.75;1.08;;;;;;;8.04;100.00;101110.38;10540714;28;20036;-84
2023/03/19 22:31:04;;;;;;;2.22;1.95;;;;;;;7.94;100.00;101110.00;10533982;28;20058;-83
2023/03/19 22:36:10;;;;;;;3.28;1.85;;;;;;;8.02;100.00;101106.84;10537910;28;20108;-83
2023/03/19 22:41:26;;;;;;;1.48;1.23;;;;;;;8.06;100.00;101107.03;10520184;28;20109;-82
2023/03/19 22:46:28;;;;;;;0.57;0.55;;;;;;;8.11;100.00;101099.53;10541812;28;20048;-82
2023/03/19 22:51:30;;;;;;;2.17;1.00;;;;;;;8.28;100.00;101099.31;10530156;28;20603;-83
2023/03/19 22:56:32;;;;;;;4.35;2.38;;;;;;;8.19;100.00;101090.44;10515287;28;20048;-83
2023/03/19 23:01:38;;;;;;;2.92;1.15;;;;;;;8.23;100.00;101081.16;10551457;28;20044;-83
2023/03/19 23:06:40;;;;;;;2.22;1.73;;;;;;;8.37;100.00;101092.84;10536338;28;20453;-83
2023/03/19 23:11:42;;;;;;;2.08;1.35;;;;;;;8.40;100.00;101092.97;10535932;28;20446;-82
2023/03/19 23:16:45;;;;;;;4.72;1.67;;;;;;;8.43;100.00;101099.91;10522506;28;20056;-83